< < Back
Terminal Aerodrome Forecast


Current Version              Previous Versions:   1  2  3  4  5  6  7  8  9  

Terminal Aerodrome Forecast

252
FTUS42 KILM 020537
TAFFLO
TAF
KFLO 020537Z 0206/0306 VRB02KT P6SM SKC
      TEMPO 0209/0212 3SM BR
     FM021500 05007KT P6SM SCT060
     FM021800 11008KT P6SM SCT050
     FM030000 15007KT P6SM SKC=

Latest METAR

849
SAUS70 KWBC 021400 RRH
MTRFLO
METAR KFLO 021353Z 07005KT 10SM CLR 28/21 A2995 RMK AO2 SLP140
T02830211


USA.gov is the U.S. government's official web portal to all federal, state and local government web resources and services.